sensor_id;sensor_type;location;lat;lon;timestamp;temperature;humidity
52743;DHT22;55583;53.012;6.556;2023-04-15T00:02:15;6.60;99.90
52743;DHT22;55583;53.012;6.556;2023-04-15T00:04:45;6.50;99.90
52743;DHT22;55583;53.012;6.556;2023-04-15T00:07:11;6.50;99.90
52743;DHT22;55583;53.012;6.556;2023-04-15T00:09:43;6.50;99.90
52743;DHT22;55583;53.012;6.556;2023-04-15T00:12:10;6.40;99.90
52743;DHT22;55583;53.012;6.556;2023-04-15T00:14:36;6.40;99.90
52743;DHT22;55583;53.012;6.556;2023-04-15T00:17:03;6.30;99.90
52743;DHT22;55583;53.012;6.556;2023-04-15T00:19:30;6.40;99.90
52743;DHT22;55583;53.012;6.556;2023-04-15T00:21:56;6.40;99.90
52743;DHT22;55583;53.012;6.556;2023-04-15T00:24:22;6.30;99.90
52743;DHT22;55583;53.012;6.556;2023-04-15T00:26:48;6.20;99.90
52743;DHT22;55583;53.012;6.556;2023-04-15T00:29:14;7.10;99.90
52743;DHT22;55583;53.012;6.556;2023-04-15T00:31:40;6.20;99.90
52743;DHT22;55583;53.012;6.556;2023-04-15T00:34:06;6.20;99.90
52743;DHT22;55583;53.012;6.556;2023-04-15T00:36:32;6.20;99.90
52743;DHT22;55583;53.012;6.556;2023-04-15T00:38:59;6.20;99.90
52743;DHT22;55583;53.012;6.556;2023-04-15T00:41:25;6.20;99.90
52743;DHT22;55583;53.012;6.556;2023-04-15T00:43:51;6.20;99.90
52743;DHT22;55583;53.012;6.556;2023-04-15T00:46:17;6.20;99.90
52743;DHT22;55583;53.012;6.556;2023-04-15T00:48:45;6.20;99.90
52743;DHT22;55583;53.012;6.556;2023-04-15T00:51:12;6.10;99.90
52743;DHT22;55583;53.012;6.556;2023-04-15T00:53:38;6.10;99.90
52743;DHT22;55583;53.012;6.556;2023-04-15T00:56:04;6.10;99.90
52743;DHT22;55583;53.012;6.556;2023-04-15T00:58:30;6.10;99.90
52743;DHT22;55583;53.012;6.556;2023-04-15T01:00:56;6.20;99.90
52743;DHT22;55583;53.012;6.556;2023-04-15T01:03:22;6.10;99.90
52743;DHT22;55583;53.012;6.556;2023-04-15T01:05:49;6.10;99.90
52743;DHT22;55583;53.012;6.556;2023-04-15T01:08:14;6.10;99.90
52743;DHT22;55583;53.012;6.556;2023-04-15T01:10:40;6.00;99.90
52743;DHT22;55583;53.012;6.556;2023-04-15T01:13:06;6.00;99.90
52743;DHT22;55583;53.012;6.556;2023-04-15T01:15:33;5.90;99.90
52743;DHT22;55583;53.012;6.556;2023-04-15T01:18:01;5.90;99.90
52743;DHT22;55583;53.012;6.556;2023-04-15T01:20:28;6.10;99.90
52743;DHT22;55583;53.012;6.556;2023-04-15T01:22:54;5.90;99.90
52743;DHT22;55583;53.012;6.556;2023-04-15T01:25:30;5.80;99.90
52743;DHT22;55583;53.012;6.556;2023-04-15T01:27:57;5.80;99.90
52743;DHT22;55583;53.012;6.556;2023-04-15T01:30:23;5.80;99.90
52743;DHT22;55583;53.012;6.556;2023-04-15T01:32:50;5.80;99.90
52743;DHT22;55583;53.012;6.556;2023-04-15T01:35:16;5.70;99.90
52743;DHT22;55583;53.012;6.556;2023-04-15T01:37:41;5.70;99.90
52743;DHT22;55583;53.012;6.556;2023-04-15T01:40:07;5.70;99.90
52743;DHT22;55583;53.012;6.556;2023-04-15T01:42:35;5.60;99.90
52743;DHT22;55583;53.012;6.556;2023-04-15T01:45:01;5.50;99.90
52743;DHT22;55583;53.012;6.556;2023-04-15T01:47:27;5.50;99.90
52743;DHT22;55583;53.012;6.556;2023-04-15T01:49:52;5.50;99.90
52743;DHT22;55583;53.012;6.556;2023-04-15T01:52:18;5.40;99.90
52743;DHT22;55583;53.012;6.556;2023-04-15T01:54:44;5.40;99.90
52743;DHT22;55583;53.012;6.556;2023-04-15T01:57:10;5.50;99.90
52743;DHT22;55583;53.012;6.556;2023-04-15T01:59:35;5.30;99.90
52743;DHT22;55583;53.012;6.556;2023-04-15T02:02:01;5.20;99.90
52743;DHT22;55583;53.012;6.556;2023-04-15T02:04:27;5.20;99.90
52743;DHT22;55583;53.012;6.556;2023-04-15T02:06:53;5.20;99.90
52743;DHT22;55583;53.012;6.556;2023-04-15T02:09:18;5.10;99.90
52743;DHT22;55583;53.012;6.556;2023-04-15T02:11:44;5.10;99.90
52743;DHT22;55583;53.012;6.556;2023-04-15T02:14:10;5.10;99.90
52743;DHT22;55583;53.012;6.556;2023-04-15T02:16:35;5.00;99.90
52743;DHT22;55583;53.012;6.556;2023-04-15T02:19:01;5.00;99.90
52743;DHT22;55583;53.012;6.556;2023-04-15T02:21:28;5.00;99.90
52743;DHT22;55583;53.012;6.556;2023-04-15T02:23:54;4.90;99.90
52743;DHT22;55583;53.012;6.556;2023-04-15T02:26:20;4.90;99.90
52743;DHT22;55583;53.012;6.556;2023-04-15T02:28:47;4.80;99.90
52743;DHT22;55583;53.012;6.556;2023-04-15T02:31:13;4.80;99.90
52743;DHT22;55583;53.012;6.556;2023-04-15T02:33:39;4.70;99.90
52743;DHT22;55583;53.012;6.556;2023-04-15T02:36:05;4.70;99.90
52743;DHT22;55583;53.012;6.556;2023-04-15T02:38:32;4.70;99.90
52743;DHT22;55583;53.012;6.556;2023-04-15T02:40:57;4.70;99.90
52743;DHT22;55583;53.012;6.556;2023-04-15T02:43:23;4.60;99.90
52743;DHT22;55583;53.012;6.556;2023-04-15T02:45:49;4.60;99.90
52743;DHT22;55583;53.012;6.556;2023-04-15T02:48:15;4.60;99.90
52743;DHT22;55583;53.012;6.556;2023-04-15T02:50:44;4.60;99.90
52743;DHT22;55583;53.012;6.556;2023-04-15T02:53:10;4.60;99.90
52743;DHT22;55583;53.012;6.556;2023-04-15T02:55:36;4.60;99.90
52743;DHT22;55583;53.012;6.556;2023-04-15T02:58:01;4.60;99.90
52743;DHT22;55583;53.012;6.556;2023-04-15T03:00:27;4.50;99.90
52743;DHT22;55583;53.012;6.556;2023-04-15T03:03:06;4.50;99.90
52743;DHT22;55583;53.012;6.556;2023-04-15T03:05:32;4.50;99.90
52743;DHT22;55583;53.012;6.556;2023-04-15T03:07:57;4.40;99.90
52743;DHT22;55583;53.012;6.556;2023-04-15T03:10:23;4.40;99.90
52743;DHT22;55583;53.012;6.556;2023-04-15T03:12:49;4.30;99.90
52743;DHT22;55583;53.012;6.556;2023-04-15T03:15:14;4.40;99.90
52743;DHT22;55583;53.012;6.556;2023-04-15T03:17:41;4.40;99.90
52743;DHT22;55583;53.012;6.556;2023-04-15T03:20:07;4.40;99.90
52743;DHT22;55583;53.012;6.556;2023-04-15T03:22:33;4.30;99.90
52743;DHT22;55583;53.012;6.556;2023-04-15T03:24:59;4.30;99.90
52743;DHT22;55583;53.012;6.556;2023-04-15T03:27:25;4.30;99.90
52743;DHT22;55583;53.012;6.556;2023-04-15T03:29:50;4.20;99.90
52743;DHT22;55583;53.012;6.556;2023-04-15T03:32:16;4.30;99.90
52743;DHT22;55583;53.012;6.556;2023-04-15T03:34:42;4.20;99.90
52743;DHT22;55583;53.012;6.556;2023-04-15T03:37:08;4.20;99.90
52743;DHT22;55583;53.012;6.556;2023-04-15T03:39:34;4.20;99.90
52743;DHT22;55583;53.012;6.556;2023-04-15T03:42:00;4.20;99.90
52743;DHT22;55583;53.012;6.556;2023-04-15T03:44:26;4.20;99.90
52743;DHT22;55583;53.012;6.556;2023-04-15T03:46:52;4.20;99.90
52743;DHT22;55583;53.012;6.556;2023-04-15T03:49:18;4.20;99.90
52743;DHT22;55583;53.012;6.556;2023-04-15T03:51:44;4.20;99.90
52743;DHT22;55583;53.012;6.556;2023-04-15T03:54:10;4.20;99.90
52743;DHT22;55583;53.012;6.556;2023-04-15T03:56:37;4.20;99.90
52743;DHT22;55583;53.012;6.556;2023-04-15T03:59:02;4.30;99.90
52743;DHT22;55583;53.012;6.556;2023-04-15T04:01:28;4.20;99.90
52743;DHT22;55583;53.012;6.556;2023-04-15T04:03:53;4.20;99.90
52743;DHT22;55583;53.012;6.556;2023-04-15T04:06:19;4.20;99.90
52743;DHT22;55583;53.012;6.556;2023-04-15T04:08:45;4.20;99.90
52743;DHT22;55583;53.012;6.556;2023-04-15T04:11:10;4.10;99.90
52743;DHT22;55583;53.012;6.556;2023-04-15T04:13:36;4.10;99.90
52743;DHT22;55583;53.012;6.556;2023-04-15T04:16:02;4.00;99.90
52743;DHT22;55583;53.012;6.556;2023-04-15T04:18:30;4.00;99.90
52743;DHT22;55583;53.012;6.556;2023-04-15T04:20:56;3.90;99.90
52743;DHT22;55583;53.012;6.556;2023-04-15T04:23:21;3.90;99.90
52743;DHT22;55583;53.012;6.556;2023-04-15T04:25:47;3.80;99.90
52743;DHT22;55583;53.012;6.556;2023-04-15T04:28:13;3.80;99.90
52743;DHT22;55583;53.012;6.556;2023-04-15T04:30:39;3.70;99.90
52743;DHT22;55583;53.012;6.556;2023-04-15T04:33:05;3.70;99.90
52743;DHT22;55583;53.012;6.556;2023-04-15T04:35:31;3.60;99.90
52743;DHT22;55583;53.012;6.556;2023-04-15T04:37:59;3.60;99.90
52743;DHT22;55583;53.012;6.556;2023-04-15T04:40:25;3.60;99.90
52743;DHT22;55583;53.012;6.556;2023-04-15T04:42:52;3.50;99.90
52743;DHT22;55583;53.012;6.556;2023-04-15T04:45:18;3.50;99.90
52743;DHT22;55583;53.012;6.556;2023-04-15T04:47:43;3.40;99.90
52743;DHT22;55583;53.012;6.556;2023-04-15T04:50:09;3.40;99.90
52743;DHT22;55583;53.012;6.556;2023-04-15T04:52:36;3.40;99.90
52743;DHT22;55583;53.012;6.556;2023-04-15T04:55:02;3.40;99.90
52743;DHT22;55583;53.012;6.556;2023-04-15T04:57:28;3.30;99.90
52743;DHT22;55583;53.012;6.556;2023-04-15T04:59:53;3.30;99.90
52743;DHT22;55583;53.012;6.556;2023-04-15T05:02:19;3.30;99.90
52743;DHT22;55583;53.012;6.556;2023-04-15T05:04:45;3.30;99.90
52743;DHT22;55583;53.012;6.556;2023-04-15T05:07:10;3.30;99.90
52743;DHT22;55583;53.012;6.556;2023-04-15T05:09:36;3.30;99.90
52743;DHT22;55583;53.012;6.556;2023-04-15T05:12:05;3.30;99.90
52743;DHT22;55583;53.012;6.556;2023-04-15T05:14:30;3.30;99.90
52743;DHT22;55583;53.012;6.556;2023-04-15T05:16:56;3.30;99.90
52743;DHT22;55583;53.012;6.556;2023-04-15T05:19:22;3.30;99.90
52743;DHT22;55583;53.012;6.556;2023-04-15T05:21:48;3.30;99.90
52743;DHT22;55583;53.012;6.556;2023-04-15T05:24:13;3.30;99.90
52743;DHT22;55583;53.012;6.556;2023-04-15T05:26:39;3.30;99.90
52743;DHT22;55583;53.012;6.556;2023-04-15T05:29:04;3.40;99.90
52743;DHT22;55583;53.012;6.556;2023-04-15T05:31:30;3.40;99.90
52743;DHT22;55583;53.012;6.556;2023-04-15T05:33:56;3.50;99.90
52743;DHT22;55583;53.012;6.556;2023-04-15T05:36:21;3.50;99.90
52743;DHT22;55583;53.012;6.556;2023-04-15T05:38:47;3.60;99.90
52743;DHT22;55583;53.012;6.556;2023-04-15T05:41:13;3.60;99.90
52743;DHT22;55583;53.012;6.556;2023-04-15T05:43:40;3.70;99.90
52743;DHT22;55583;53.012;6.556;2023-04-15T05:46:06;3.80;99.90
52743;DHT22;55583;53.012;6.556;2023-04-15T05:48:33;3.90;99.90
52743;DHT22;55583;53.012;6.556;2023-04-15T05:50:59;3.90;99.90
52743;DHT22;55583;53.012;6.556;2023-04-15T05:53:25;4.10;99.90
52743;DHT22;55583;53.012;6.556;2023-04-15T05:55:51;4.20;99.90
52743;DHT22;55583;53.012;6.556;2023-04-15T05:58:16;4.30;99.90
52743;DHT22;55583;53.012;6.556;2023-04-15T06:00:42;4.50;99.90
52743;DHT22;55583;53.012;6.556;2023-04-15T06:03:09;4.60;99.90
52743;DHT22;55583;53.012;6.556;2023-04-15T06:05:36;4.70;99.90
52743;DHT22;55583;53.012;6.556;2023-04-15T06:08:02;5.00;99.90
52743;DHT22;55583;53.012;6.556;2023-04-15T06:10:27;5.20;99.90
52743;DHT22;55583;53.012;6.556;2023-04-15T06:13:01;5.40;99.90
52743;DHT22;55583;53.012;6.556;2023-04-15T06:15:26;5.50;99.90
52743;DHT22;55583;53.012;6.556;2023-04-15T06:17:52;5.70;99.90
52743;DHT22;55583;53.012;6.556;2023-04-15T06:20:17;5.90;99.90
52743;DHT22;55583;53.012;6.556;2023-04-15T06:22:43;6.10;99.90
52743;DHT22;55583;53.012;6.556;2023-04-15T06:25:09;6.20;99.90
52743;DHT22;55583;53.012;6.556;2023-04-15T06:27:35;6.50;99.90
52743;DHT22;55583;53.012;6.556;2023-04-15T06:30:00;6.70;99.90
52743;DHT22;55583;53.012;6.556;2023-04-15T06:32:26;6.90;99.90
52743;DHT22;55583;53.012;6.556;2023-04-15T06:34:52;7.20;99.90
52743;DHT22;55583;53.012;6.556;2023-04-15T06:37:17;7.60;99.90
52743;DHT22;55583;53.012;6.556;2023-04-15T06:39:43;7.70;99.90
52743;DHT22;55583;53.012;6.556;2023-04-15T06:42:10;7.80;99.90
52743;DHT22;55583;53.012;6.556;2023-04-15T06:44:35;8.00;99.90
52743;DHT22;55583;53.012;6.556;2023-04-15T06:47:02;8.00;99.90
52743;DHT22;55583;53.012;6.556;2023-04-15T06:49:27;8.10;99.90
52743;DHT22;55583;53.012;6.556;2023-04-15T06:51:53;8.20;99.90
52743;DHT22;55583;53.012;6.556;2023-04-15T06:54:19;8.20;99.90
52743;DHT22;55583;53.012;6.556;2023-04-15T06:56:44;8.30;99.90
52743;DHT22;55583;53.012;6.556;2023-04-15T06:59:10;8.30;99.90
52743;DHT22;55583;53.012;6.556;2023-04-15T07:01:36;8.30;99.90
52743;DHT22;55583;53.012;6.556;2023-04-15T07:04:01;8.40;99.90
52743;DHT22;55583;53.012;6.556;2023-04-15T07:06:27;8.30;99.90
52743;DHT22;55583;53.012;6.556;2023-04-15T07:08:53;8.40;99.90
52743;DHT22;55583;53.012;6.556;2023-04-15T07:11:19;8.50;99.90
52743;DHT22;55583;53.012;6.556;2023-04-15T07:13:45;8.60;99.90
52743;DHT22;55583;53.012;6.556;2023-04-15T07:16:11;8.70;99.90
52743;DHT22;55583;53.012;6.556;2023-04-15T07:18:36;8.80;99.90
52743;DHT22;55583;53.012;6.556;2023-04-15T07:21:02;8.90;99.90
52743;DHT22;55583;53.012;6.556;2023-04-15T07:23:28;9.00;99.90
52743;DHT22;55583;53.012;6.556;2023-04-15T07:25:54;9.10;99.90
52743;DHT22;55583;53.012;6.556;2023-04-15T07:28:20;9.20;99.90
52743;DHT22;55583;53.012;6.556;2023-04-15T07:30:45;9.30;99.90
52743;DHT22;55583;53.012;6.556;2023-04-15T07:33:11;9.30;99.90
52743;DHT22;55583;53.012;6.556;2023-04-15T07:35:37;10.20;99.90
52743;DHT22;55583;53.012;6.556;2023-04-15T07:38:02;9.50;99.90
52743;DHT22;55583;53.012;6.556;2023-04-15T07:40:28;9.60;99.90
52743;DHT22;55583;53.012;6.556;2023-04-15T07:42:55;9.70;99.90
52743;DHT22;55583;53.012;6.556;2023-04-15T07:45:21;9.80;99.90
52743;DHT22;55583;53.012;6.556;2023-04-15T07:47:47;9.80;99.90
52743;DHT22;55583;53.012;6.556;2023-04-15T07:50:13;10.00;99.90
52743;DHT22;55583;53.012;6.556;2023-04-15T07:52:39;10.00;99.90
52743;DHT22;55583;53.012;6.556;2023-04-15T07:55:06;10.00;99.90
52743;DHT22;55583;53.012;6.556;2023-04-15T07:57:33;10.10;99.90
52743;DHT22;55583;53.012;6.556;2023-04-15T08:00:00;10.20;99.90
52743;DHT22;55583;53.012;6.556;2023-04-15T08:02:25;10.10;99.90
52743;DHT22;55583;53.012;6.556;2023-04-15T08:04:51;10.20;99.90
52743;DHT22;55583;53.012;6.556;2023-04-15T08:07:18;10.20;99.90
52743;DHT22;55583;53.012;6.556;2023-04-15T08:09:44;10.20;99.90
52743;DHT22;55583;53.012;6.556;2023-04-15T08:12:10;10.30;99.90
52743;DHT22;55583;53.012;6.556;2023-04-15T08:14:38;10.40;99.90
52743;DHT22;55583;53.012;6.556;2023-04-15T08:17:04;10.60;99.90
52743;DHT22;55583;53.012;6.556;2023-04-15T08:19:30;10.70;99.90
52743;DHT22;55583;53.012;6.556;2023-04-15T08:21:55;11.40;99.90
52743;DHT22;55583;53.012;6.556;2023-04-15T08:24:22;10.80;99.90
52743;DHT22;55583;53.012;6.556;2023-04-15T08:26:48;10.70;99.90
52743;DHT22;55583;53.012;6.556;2023-04-15T08:29:14;10.60;99.90
52743;DHT22;55583;53.012;6.556;2023-04-15T08:31:40;10.50;99.90
52743;DHT22;55583;53.012;6.556;2023-04-15T08:34:06;10.40;99.90
52743;DHT22;55583;53.012;6.556;2023-04-15T08:36:31;10.60;99.90
52743;DHT22;55583;53.012;6.556;2023-04-15T08:38:58;10.10;99.90
52743;DHT22;55583;53.012;6.556;2023-04-15T08:41:25;10.20;99.90
52743;DHT22;55583;53.012;6.556;2023-04-15T08:43:58;10.10;99.90
52743;DHT22;55583;53.012;6.556;2023-04-15T08:46:25;10.10;99.90
52743;DHT22;55583;53.012;6.556;2023-04-15T08:48:51;10.10;99.90
52743;DHT22;55583;53.012;6.556;2023-04-15T08:51:20;10.00;99.90
52743;DHT22;55583;53.012;6.556;2023-04-15T08:53:46;10.00;99.90
52743;DHT22;55583;53.012;6.556;2023-04-15T08:56:14;10.00;99.90
52743;DHT22;55583;53.012;6.556;2023-04-15T08:58:40;10.00;99.90
52743;DHT22;55583;53.012;6.556;2023-04-15T09:01:06;9.90;99.90
52743;DHT22;55583;53.012;6.556;2023-04-15T09:03:32;9.90;99.90
52743;DHT22;55583;53.012;6.556;2023-04-15T09:05:59;9.80;99.90
52743;DHT22;55583;53.012;6.556;2023-04-15T09:08:25;9.80;99.90
52743;DHT22;55583;53.012;6.556;2023-04-15T09:10:50;9.90;99.90
52743;DHT22;55583;53.012;6.556;2023-04-15T09:13:17;9.90;99.90
52743;DHT22;55583;53.012;6.556;2023-04-15T09:15:43;9.80;99.90
52743;DHT22;55583;53.012;6.556;2023-04-15T09:18:11;9.70;99.90
52743;DHT22;55583;53.012;6.556;2023-04-15T09:20:39;9.70;99.90
52743;DHT22;55583;53.012;6.556;2023-04-15T09:23:13;9.70;99.90
52743;DHT22;55583;53.012;6.556;2023-04-15T09:25:39;9.70;99.90
52743;DHT22;55583;53.012;6.556;2023-04-15T09:28:07;9.80;99.90
52743;DHT22;55583;53.012;6.556;2023-04-15T09:30:33;10.00;99.90
52743;DHT22;55583;53.012;6.556;2023-04-15T09:33:01;10.10;99.90
52743;DHT22;55583;53.012;6.556;2023-04-15T09:35:27;10.10;99.90
52743;DHT22;55583;53.012;6.556;2023-04-15T09:38:01;10.30;99.90
52743;DHT22;55583;53.012;6.556;2023-04-15T09:40:34;10.30;99.90
52743;DHT22;55583;53.012;6.556;2023-04-15T09:43:01;10.20;99.90
52743;DHT22;55583;53.012;6.556;2023-04-15T09:45:28;10.20;99.90
52743;DHT22;55583;53.012;6.556;2023-04-15T09:47:54;10.30;99.90
52743;DHT22;55583;53.012;6.556;2023-04-15T09:50:21;10.40;99.90
52743;DHT22;55583;53.012;6.556;2023-04-15T09:52:47;10.40;99.90
52743;DHT22;55583;53.012;6.556;2023-04-15T09:55:13;10.50;99.90
52743;DHT22;55583;53.012;6.556;2023-04-15T09:57:40;10.60;99.90
52743;DHT22;55583;53.012;6.556;2023-04-15T10:00:07;10.80;99.90
52743;DHT22;55583;53.012;6.556;2023-04-15T10:02:36;10.90;99.90
52743;DHT22;55583;53.012;6.556;2023-04-15T10:05:03;11.00;99.90
52743;DHT22;55583;53.012;6.556;2023-04-15T10:07:30;11.00;99.90
52743;DHT22;55583;53.012;6.556;2023-04-15T10:09:59;11.00;99.90
52743;DHT22;55583;53.012;6.556;2023-04-15T10:12:26;11.00;99.90
52743;DHT22;55583;53.012;6.556;2023-04-15T10:14:59;11.00;99.90
52743;DHT22;55583;53.012;6.556;2023-04-15T10:17:27;11.00;99.80
52743;DHT22;55583;53.012;6.556;2023-04-15T10:20:00;10.90;98.60
52743;DHT22;55583;53.012;6.556;2023-04-15T10:22:27;10.80;99.90
52743;DHT22;55583;53.012;6.556;2023-04-15T10:24:54;10.80;99.90
52743;DHT22;55583;53.012;6.556;2023-04-15T10:27:20;10.80;99.90
52743;DHT22;55583;53.012;6.556;2023-04-15T10:29:50;10.80;99.90
52743;DHT22;55583;53.012;6.556;2023-04-15T10:32:19;10.90;99.90
52743;DHT22;55583;53.012;6.556;2023-04-15T10:34:49;10.90;99.90
52743;DHT22;55583;53.012;6.556;2023-04-15T10:37:21;10.90;99.90
52743;DHT22;55583;53.012;6.556;2023-04-15T10:39:47;10.90;99.90
52743;DHT22;55583;53.012;6.556;2023-04-15T10:42:14;10.90;99.90
52743;DHT22;55583;53.012;6.556;2023-04-15T10:44:48;11.00;99.90
52743;DHT22;55583;53.012;6.556;2023-04-15T10:47:17;11.00;99.90
52743;DHT22;55583;53.012;6.556;2023-04-15T10:49:52;11.00;99.90
52743;DHT22;55583;53.012;6.556;2023-04-15T10:52:23;11.00;99.90
52743;DHT22;55583;53.012;6.556;2023-04-15T10:55:02;10.90;99.90
52743;DHT22;55583;53.012;6.556;2023-04-15T10:57:34;11.00;99.70
52743;DHT22;55583;53.012;6.556;2023-04-15T11:00:23;10.90;99.90
52743;DHT22;55583;53.012;6.556;2023-04-15T11:03:06;10.90;99.90
52743;DHT22;55583;53.012;6.556;2023-04-15T11:08:03;10.80;99.90
52743;DHT22;55583;53.012;6.556;2023-04-15T11:13:21;10.80;99.90
52743;DHT22;55583;53.012;6.556;2023-04-15T11:15:48;10.80;99.90
52743;DHT22;55583;53.012;6.556;2023-04-15T11:18:22;10.80;99.90
52743;DHT22;55583;53.012;6.556;2023-04-15T11:20:59;10.80;99.90
52743;DHT22;55583;53.012;6.556;2023-04-15T11:23:37;10.80;99.90
52743;DHT22;55583;53.012;6.556;2023-04-15T11:26:06;10.70;99.90
52743;DHT22;55583;53.012;6.556;2023-04-15T11:28:34;10.60;99.90
52743;DHT22;55583;53.012;6.556;2023-04-15T11:31:11;10.60;99.90
52743;DHT22;55583;53.012;6.556;2023-04-15T11:33:43;10.60;99.90
52743;DHT22;55583;53.012;6.556;2023-04-15T11:36:09;10.60;99.90
52743;DHT22;55583;53.012;6.556;2023-04-15T11:38:35;10.60;99.90
52743;DHT22;55583;53.012;6.556;2023-04-15T11:41:02;10.70;99.90
52743;DHT22;55583;53.012;6.556;2023-04-15T11:43:30;10.60;99.90
52743;DHT22;55583;53.012;6.556;2023-04-15T11:46:01;10.60;99.90
52743;DHT22;55583;53.012;6.556;2023-04-15T11:48:28;10.60;99.90
52743;DHT22;55583;53.012;6.556;2023-04-15T11:50:59;10.60;99.90
52743;DHT22;55583;53.012;6.556;2023-04-15T11:53:46;10.70;99.90
52743;DHT22;55583;53.012;6.556;2023-04-15T11:56:32;10.80;99.90
52743;DHT22;55583;53.012;6.556;2023-04-15T11:58:58;10.90;99.90
52743;DHT22;55583;53.012;6.556;2023-04-15T12:01:37;11.00;99.90
52743;DHT22;55583;53.012;6.556;2023-04-15T12:04:14;10.90;99.90
52743;DHT22;55583;53.012;6.556;2023-04-15T12:06:43;10.90;99.90
52743;DHT22;55583;53.012;6.556;2023-04-15T12:09:13;11.00;99.90
52743;DHT22;55583;53.012;6.556;2023-04-15T12:11:50;10.90;99.90
52743;DHT22;55583;53.012;6.556;2023-04-15T12:14:30;10.90;99.90
52743;DHT22;55583;53.012;6.556;2023-04-15T12:16:57;10.90;99.90
52743;DHT22;55583;53.012;6.556;2023-04-15T12:19:37;10.90;99.90
52743;DHT22;55583;53.012;6.556;2023-04-15T12:22:14;10.90;99.90
52743;DHT22;55583;53.012;6.556;2023-04-15T12:24:41;10.90;99.90
52743;DHT22;55583;53.012;6.556;2023-04-15T12:27:14;10.80;99.90
52743;DHT22;55583;53.012;6.556;2023-04-15T12:29:41;10.80;99.90
52743;DHT22;55583;53.012;6.556;2023-04-15T12:32:11;10.80;99.90
52743;DHT22;55583;53.012;6.556;2023-04-15T12:37:06;10.80;99.90
52743;DHT22;55583;53.012;6.556;2023-04-15T12:39:35;10.80;99.90
52743;DHT22;55583;53.012;6.556;2023-04-15T12:42:03;10.90;99.90
52743;DHT22;55583;53.012;6.556;2023-04-15T12:44:28;10.80;99.90
52743;DHT22;55583;53.012;6.556;2023-04-15T12:46:54;10.90;99.90
52743;DHT22;55583;53.012;6.556;2023-04-15T12:49:20;10.80;99.90
52743;DHT22;55583;53.012;6.556;2023-04-15T12:51:51;10.80;99.90
52743;DHT22;55583;53.012;6.556;2023-04-15T12:54:17;10.80;99.90
52743;DHT22;55583;53.012;6.556;2023-04-15T12:56:44;10.70;99.90
52743;DHT22;55583;53.012;6.556;2023-04-15T12:59:10;10.90;99.90
52743;DHT22;55583;53.012;6.556;2023-04-15T13:01:37;10.70;99.90
52743;DHT22;55583;53.012;6.556;2023-04-15T13:04:03;10.70;99.90
52743;DHT22;55583;53.012;6.556;2023-04-15T13:06:29;10.60;99.90
52743;DHT22;55583;53.012;6.556;2023-04-15T13:08:57;10.90;99.90
52743;DHT22;55583;53.012;6.556;2023-04-15T13:11:23;10.70;99.90
52743;DHT22;55583;53.012;6.556;2023-04-15T13:13:49;10.70;99.90
52743;DHT22;55583;53.012;6.556;2023-04-15T13:16:17;10.80;99.90
52743;DHT22;55583;53.012;6.556;2023-04-15T13:18:43;10.70;99.90
52743;DHT22;55583;53.012;6.556;2023-04-15T13:21:11;10.70;99.90
52743;DHT22;55583;53.012;6.556;2023-04-15T13:23:37;10.70;99.90
52743;DHT22;55583;53.012;6.556;2023-04-15T13:26:03;10.70;99.90
52743;DHT22;55583;53.012;6.556;2023-04-15T13:28:29;10.60;99.90
52743;DHT22;55583;53.012;6.556;2023-04-15T13:30:54;10.60;99.90
52743;DHT22;55583;53.012;6.556;2023-04-15T13:33:20;10.50;99.90
52743;DHT22;55583;53.012;6.556;2023-04-15T13:35:46;10.50;99.90
52743;DHT22;55583;53.012;6.556;2023-04-15T13:38:11;10.50;99.90
52743;DHT22;55583;53.012;6.556;2023-04-15T13:40:37;10.50;99.90
52743;DHT22;55583;53.012;6.556;2023-04-15T13:43:02;10.30;99.90
52743;DHT22;55583;53.012;6.556;2023-04-15T13:45:29;10.30;99.90
52743;DHT22;55583;53.012;6.556;2023-04-15T13:47:55;10.30;99.90
52743;DHT22;55583;53.012;6.556;2023-04-15T13:50:22;10.30;99.90
52743;DHT22;55583;53.012;6.556;2023-04-15T13:52:47;10.20;99.90
52743;DHT22;55583;53.012;6.556;2023-04-15T13:55:13;10.20;99.90
52743;DHT22;55583;53.012;6.556;2023-04-15T13:57:39;10.20;99.90
52743;DHT22;55583;53.012;6.556;2023-04-15T14:00:05;10.20;99.90
52743;DHT22;55583;53.012;6.556;2023-04-15T14:02:31;10.20;99.90
52743;DHT22;55583;53.012;6.556;2023-04-15T14:04:56;10.20;99.90
52743;DHT22;55583;53.012;6.556;2023-04-15T14:07:22;10.30;99.90
52743;DHT22;55583;53.012;6.556;2023-04-15T14:09:48;10.30;99.90
52743;DHT22;55583;53.012;6.556;2023-04-15T14:12:13;10.20;99.90
52743;DHT22;55583;53.012;6.556;2023-04-15T14:14:39;10.10;99.90
52743;DHT22;55583;53.012;6.556;2023-04-15T14:17:06;10.10;99.90
52743;DHT22;55583;53.012;6.556;2023-04-15T14:19:32;10.20;99.90
52743;DHT22;55583;53.012;6.556;2023-04-15T14:21:57;10.20;99.90
52743;DHT22;55583;53.012;6.556;2023-04-15T14:24:23;10.20;99.90
52743;DHT22;55583;53.012;6.556;2023-04-15T14:26:49;10.10;99.90
52743;DHT22;55583;53.012;6.556;2023-04-15T14:29:15;10.00;99.90
52743;DHT22;55583;53.012;6.556;2023-04-15T14:31:41;10.00;99.90
52743;DHT22;55583;53.012;6.556;2023-04-15T14:34:09;9.90;99.90
52743;DHT22;55583;53.012;6.556;2023-04-15T14:36:35;9.90;99.90
52743;DHT22;55583;53.012;6.556;2023-04-15T14:39:02;9.80;99.90
52743;DHT22;55583;53.012;6.556;2023-04-15T14:41:28;9.80;99.90
52743;DHT22;55583;53.012;6.556;2023-04-15T14:43:54;9.80;99.90
52743;DHT22;55583;53.012;6.556;2023-04-15T14:46:19;9.70;99.90
52743;DHT22;55583;53.012;6.556;2023-04-15T14:48:45;9.60;99.90
52743;DHT22;55583;53.012;6.556;2023-04-15T14:51:11;9.60;99.90
52743;DHT22;55583;53.012;6.556;2023-04-15T14:53:36;9.60;99.90
52743;DHT22;55583;53.012;6.556;2023-04-15T14:56:02;9.60;99.90
52743;DHT22;55583;53.012;6.556;2023-04-15T14:58:28;9.50;99.90
52743;DHT22;55583;53.012;6.556;2023-04-15T15:00:53;9.50;99.90
52743;DHT22;55583;53.012;6.556;2023-04-15T15:03:19;9.40;99.90
52743;DHT22;55583;53.012;6.556;2023-04-15T15:05:46;9.40;99.90
52743;DHT22;55583;53.012;6.556;2023-04-15T15:08:12;9.30;99.90
52743;DHT22;55583;53.012;6.556;2023-04-15T15:10:39;9.30;99.90
52743;DHT22;55583;53.012;6.556;2023-04-15T15:13:06;9.30;99.90
52743;DHT22;55583;53.012;6.556;2023-04-15T15:15:33;9.30;99.90
52743;DHT22;55583;53.012;6.556;2023-04-15T15:17:59;9.30;99.90
52743;DHT22;55583;53.012;6.556;2023-04-15T15:20:25;9.30;99.90
52743;DHT22;55583;53.012;6.556;2023-04-15T15:22:51;9.30;99.90
52743;DHT22;55583;53.012;6.556;2023-04-15T15:25:17;9.20;99.90
52743;DHT22;55583;53.012;6.556;2023-04-15T15:27:43;9.30;99.90
52743;DHT22;55583;53.012;6.556;2023-04-15T15:30:09;9.20;99.90
52743;DHT22;55583;53.012;6.556;2023-04-15T15:32:35;9.20;99.90
52743;DHT22;55583;53.012;6.556;2023-04-15T15:35:01;9.10;99.90
52743;DHT22;55583;53.012;6.556;2023-04-15T15:37:26;9.00;99.90
52743;DHT22;55583;53.012;6.556;2023-04-15T15:39:54;9.00;99.90
52743;DHT22;55583;53.012;6.556;2023-04-15T15:42:21;9.10;99.90
52743;DHT22;55583;53.012;6.556;2023-04-15T15:44:47;8.90;99.90
52743;DHT22;55583;53.012;6.556;2023-04-15T15:47:16;8.90;99.90